DAL2071 KMEM-KATL
Flight info
| Callsign | DAL2071 |
|---|---|
| Flight time | 0h 51m |
| Altitude | 35000 |
| Route | BBKNG7 KERMI HUTCC KNSAW RUSSA GLAVN2 |
| Aircraft | B738/M-SDE2E3FGHIRWXY/LB1 |
Departure
| Time | 2026-05-04 22:14 |
|---|---|
| Airport | Memphis International Airport (KMEM) |
Arrival
| Time | 2026-05-04 23:05 |
|---|---|
| Airport | Hartsfield Jackson Atlanta International Airport (KATL) |
| Time | Latitude | Longitude | Altitude | Speed | Heading |
|---|---|---|---|---|---|
| 2026-05-04 21:36 | 35.04211 | -89.98072 | 311 ft | 0 kts | 239° |
| 2026-05-04 22:01 | 35.04223 | -89.98050 | 310 ft | 2 kts | 239° |
| 2026-05-04 22:01 | 35.04237 | -89.98027 | 310 ft | 4 kts | 206° |
| 2026-05-04 22:01 | 35.04255 | -89.98027 | 312 ft | 4 kts | 129° |
| 2026-05-04 22:01 | 35.04270 | -89.98054 | 310 ft | 4 kts | 127° |
| 2026-05-04 22:02 | 35.04279 | -89.98067 | 310 ft | 1 kts | 139° |
| 2026-05-04 22:06 | 35.04272 | -89.98060 | 309 ft | 4 kts | 138° |
| 2026-05-04 22:06 | 35.04242 | -89.98025 | 309 ft | 7 kts | 136° |
| 2026-05-04 22:06 | 35.04207 | -89.97980 | 312 ft | 8 kts | 127° |
| 2026-05-04 22:07 | 35.04193 | -89.97908 | 313 ft | 9 kts | 91° |
| 2026-05-04 22:07 | 35.04193 | -89.97833 | 314 ft | 9 kts | 88° |
| 2026-05-04 22:07 | 35.04204 | -89.97763 | 315 ft | 8 kts | 56° |
| 2026-05-04 22:07 | 35.04257 | -89.97742 | 315 ft | 8 kts | 0° |
| 2026-05-04 22:08 | 35.04336 | -89.97745 | 315 ft | 16 kts | 358° |
| 2026-05-04 22:08 | 35.04477 | -89.97746 | 316 ft | 23 kts | 359° |
| 2026-05-04 22:08 | 35.04645 | -89.97751 | 313 ft | 25 kts | 359° |
| 2026-05-04 22:08 | 35.04812 | -89.97754 | 312 ft | 23 kts | 359° |
| 2026-05-04 22:09 | 35.04970 | -89.97758 | 314 ft | 22 kts | 358° |
| 2026-05-04 22:09 | 35.05124 | -89.97761 | 315 ft | 22 kts | 359° |
| 2026-05-04 22:09 | 35.05268 | -89.97764 | 320 ft | 17 kts | 358° |
| 2026-05-04 22:09 | 35.05350 | -89.97775 | 320 ft | 11 kts | 351° |
| 2026-05-04 22:10 | 35.05422 | -89.97774 | 324 ft | 10 kts | 20° |
| 2026-05-04 22:10 | 35.05442 | -89.97749 | 323 ft | 3 kts | 69° |
| 2026-05-04 22:10 | 35.05443 | -89.97734 | 324 ft | 0 kts | 87° |
| 2026-05-04 22:13 | 35.05444 | -89.97721 | 325 ft | 5 kts | 88° |
| 2026-05-04 22:13 | 35.05440 | -89.97648 | 325 ft | 11 kts | 110° |
| 2026-05-04 22:13 | 35.05369 | -89.97616 | 323 ft | 13 kts | 179° |
| 2026-05-04 22:13 | 35.05056 | -89.97610 | 315 ft | 81 kts | 179° |
| 2026-05-04 22:14 | 35.04275 | -89.97590 | 315 ft | 140 kts | 179° |
| 2026-05-04 22:14 | 35.03226 | -89.97567 | 741 ft | 159 kts | 180° |
| 2026-05-04 22:14 | 35.02130 | -89.97528 | 1587 ft | 153 kts | 182° |
| 2026-05-04 22:14 | 35.01065 | -89.97453 | 2300 ft | 158 kts | 180° |
| 2026-05-04 22:15 | 34.99863 | -89.97406 | 2616 ft | 186 kts | 182° |
| 2026-05-04 22:15 | 34.98476 | -89.97315 | 2796 ft | 214 kts | 171° |
| 2026-05-04 22:15 | 34.97013 | -89.96669 | 3208 ft | 231 kts | 161° |
| 2026-05-04 22:15 | 34.95470 | -89.95823 | 3612 ft | 253 kts | 151° |
| 2026-05-04 22:16 | 34.94187 | -89.94348 | 4414 ft | 263 kts | 132° |
| 2026-05-04 22:16 | 34.93145 | -89.92489 | 5233 ft | 271 kts | 122° |
| 2026-05-04 22:16 | 34.92702 | -89.90198 | 5959 ft | 286 kts | 96° |
| 2026-05-04 22:16 | 34.92650 | -89.87750 | 6666 ft | 292 kts | 96° |
| 2026-05-04 22:17 | 34.92577 | -89.85266 | 7426 ft | 295 kts | 96° |
| 2026-05-04 22:17 | 34.92487 | -89.82755 | 8180 ft | 298 kts | 96° |
| 2026-05-04 22:17 | 34.92378 | -89.80221 | 8920 ft | 302 kts | 96° |
| 2026-05-04 22:17 | 34.92257 | -89.77648 | 9615 ft | 307 kts | 97° |
| 2026-05-04 22:18 | 34.92131 | -89.75033 | 10288 ft | 313 kts | 96° |
| 2026-05-04 22:18 | 34.91998 | -89.72299 | 10504 ft | 335 kts | 96° |
| 2026-05-04 22:18 | 34.91854 | -89.69376 | 10674 ft | 356 kts | 96° |
| 2026-05-04 22:18 | 34.91702 | -89.66283 | 10984 ft | 372 kts | 96° |
| 2026-05-04 22:19 | 34.91569 | -89.63110 | 11524 ft | 378 kts | 94° |
| 2026-05-04 22:19 | 34.91537 | -89.59894 | 12215 ft | 381 kts | 92° |
| 2026-05-04 22:19 | 34.91549 | -89.56681 | 12890 ft | 385 kts | 92° |
| 2026-05-04 22:19 | 34.91568 | -89.53400 | 13577 ft | 389 kts | 91° |
| 2026-05-04 22:20 | 34.91582 | -89.50089 | 14190 ft | 394 kts | 91° |
| 2026-05-04 22:20 | 34.91588 | -89.46739 | 14826 ft | 398 kts | 91° |
| 2026-05-04 22:20 | 34.91587 | -89.43354 | 15511 ft | 401 kts | 91° |
| 2026-05-04 22:20 | 34.91581 | -89.39946 | 16159 ft | 404 kts | 90° |
| 2026-05-04 22:21 | 34.91573 | -89.36491 | 16770 ft | 409 kts | 90° |
| 2026-05-04 22:21 | 34.91563 | -89.33006 | 17408 ft | 413 kts | 90° |
| 2026-05-04 22:21 | 34.91553 | -89.29499 | 18062 ft | 416 kts | 89° |
| 2026-05-04 22:21 | 34.91542 | -89.25956 | 18624 ft | 420 kts | 89° |
| 2026-05-04 22:22 | 34.91528 | -89.22378 | 19155 ft | 424 kts | 90° |
| 2026-05-04 22:22 | 34.91247 | -89.18787 | 19644 ft | 429 kts | 101° |
| 2026-05-04 22:22 | 34.90594 | -89.15272 | 20177 ft | 433 kts | 103° |
| 2026-05-04 22:22 | 34.89885 | -89.11693 | 20684 ft | 436 kts | 103° |
| 2026-05-04 22:23 | 34.89215 | -89.08074 | 21185 ft | 440 kts | 102° |
| 2026-05-04 22:23 | 34.88568 | -89.04409 | 21669 ft | 444 kts | 101° |
| 2026-05-04 22:23 | 34.87931 | -89.00708 | 22155 ft | 448 kts | 101° |
| 2026-05-04 22:23 | 34.87298 | -88.96982 | 22627 ft | 451 kts | 101° |
| 2026-05-04 22:24 | 34.86660 | -88.93226 | 23102 ft | 455 kts | 101° |
| 2026-05-04 22:24 | 34.86017 | -88.89444 | 23557 ft | 458 kts | 101° |
| 2026-05-04 22:24 | 34.85365 | -88.85631 | 23927 ft | 462 kts | 101° |
| 2026-05-04 22:24 | 34.84707 | -88.81794 | 24368 ft | 463 kts | 101° |
| 2026-05-04 22:25 | 34.84046 | -88.77954 | 24782 ft | 465 kts | 101° |
| 2026-05-04 22:25 | 34.83377 | -88.74079 | 25153 ft | 469 kts | 101° |
| 2026-05-04 22:25 | 34.82703 | -88.70186 | 25510 ft | 472 kts | 101° |
| 2026-05-04 22:25 | 34.82023 | -88.66268 | 25859 ft | 475 kts | 101° |
| 2026-05-04 22:26 | 34.81338 | -88.62326 | 26206 ft | 478 kts | 101° |
| 2026-05-04 22:26 | 34.80647 | -88.58353 | 26559 ft | 481 kts | 101° |
| 2026-05-04 22:26 | 34.79951 | -88.54365 | 26904 ft | 483 kts | 101° |
| 2026-05-04 22:26 | 34.79250 | -88.50355 | 27248 ft | 486 kts | 101° |
| 2026-05-04 22:27 | 34.78543 | -88.46315 | 27586 ft | 488 kts | 102° |
| 2026-05-04 22:27 | 34.77843 | -88.42326 | 28021 ft | 488 kts | 102° |
| 2026-05-04 22:27 | 34.77365 | -88.39604 | 28279 ft | 489 kts | 102° |
| 2026-05-04 22:27 | 34.76649 | -88.35544 | 28571 ft | 492 kts | 102° |
| 2026-05-04 22:28 | 34.75694 | -88.30130 | 28933 ft | 496 kts | 102° |
| 2026-05-04 22:28 | 34.75204 | -88.27362 | 29133 ft | 498 kts | 102° |
| 2026-05-04 22:28 | 34.74474 | -88.23238 | 29438 ft | 500 kts | 102° |
| 2026-05-04 22:28 | 34.73740 | -88.19097 | 29729 ft | 502 kts | 102° |
| 2026-05-04 22:29 | 34.73006 | -88.14950 | 30037 ft | 503 kts | 101° |
| 2026-05-04 22:29 | 34.72368 | -88.10824 | 30353 ft | 503 kts | 99° |
| 2026-05-04 22:29 | 34.71806 | -88.06633 | 30726 ft | 501 kts | 98° |
| 2026-05-04 22:29 | 34.71277 | -88.02450 | 31058 ft | 501 kts | 98° |
| 2026-05-04 22:30 | 34.70751 | -87.98270 | 31322 ft | 502 kts | 98° |
| 2026-05-04 22:30 | 34.70210 | -87.94068 | 31562 ft | 504 kts | 98° |
| 2026-05-04 22:30 | 34.69655 | -87.89863 | 31840 ft | 505 kts | 98° |
| 2026-05-04 22:30 | 34.69089 | -87.85655 | 32157 ft | 504 kts | 98° |
| 2026-05-04 22:31 | 34.68518 | -87.81459 | 32478 ft | 504 kts | 98° |
| 2026-05-04 22:31 | 34.67943 | -87.77255 | 32760 ft | 505 kts | 98° |
| 2026-05-04 22:31 | 34.67365 | -87.73040 | 32965 ft | 506 kts | 98° |
| 2026-05-04 22:32 | 34.66206 | -87.64601 | 32968 ft | 503 kts | 98° |
| 2026-05-04 22:32 | 34.65058 | -87.56292 | 32966 ft | 497 kts | 98° |
| 2026-05-04 22:33 | 34.63911 | -87.48008 | 32972 ft | 498 kts | 98° |
| 2026-05-04 22:33 | 34.62715 | -87.39713 | 32966 ft | 500 kts | 101° |
| 2026-05-04 22:34 | 34.61171 | -87.31469 | 32970 ft | 501 kts | 103° |
| 2026-05-04 22:34 | 34.59576 | -87.23230 | 32976 ft | 501 kts | 102° |
| 2026-05-04 22:35 | 34.58044 | -87.14996 | 32986 ft | 500 kts | 102° |
| 2026-05-04 22:35 | 34.56543 | -87.06763 | 32987 ft | 499 kts | 101° |
| 2026-05-04 22:36 | 34.55205 | -86.98565 | 32990 ft | 498 kts | 101° |
| 2026-05-04 22:36 | 34.53722 | -86.90386 | 32991 ft | 496 kts | 107° |
| 2026-05-04 22:37 | 34.51555 | -86.82460 | 32991 ft | 494 kts | 110° |
| 2026-05-04 22:37 | 34.49381 | -86.74566 | 32985 ft | 493 kts | 108° |
| 2026-05-04 22:38 | 34.47314 | -86.66647 | 32955 ft | 493 kts | 108° |
| 2026-05-04 22:38 | 34.46278 | -86.62672 | 32671 ft | 496 kts | 108° |
| 2026-05-04 22:38 | 34.45240 | -86.58702 | 32422 ft | 493 kts | 108° |
| 2026-05-04 22:38 | 34.44205 | -86.54752 | 32166 ft | 491 kts | 108° |
| 2026-05-04 22:39 | 34.43174 | -86.50830 | 31864 ft | 485 kts | 108° |
| 2026-05-04 22:39 | 34.42155 | -86.46955 | 31214 ft | 483 kts | 108° |
| 2026-05-04 22:39 | 34.41129 | -86.43064 | 30405 ft | 486 kts | 108° |
| 2026-05-04 22:39 | 34.40098 | -86.39159 | 29572 ft | 488 kts | 109° |
| 2026-05-04 22:40 | 34.39065 | -86.35248 | 28863 ft | 485 kts | 109° |
| 2026-05-04 22:40 | 34.38042 | -86.31380 | 28262 ft | 480 kts | 109° |
| 2026-05-04 22:40 | 34.37028 | -86.27551 | 27693 ft | 475 kts | 109° |
| 2026-05-04 22:40 | 34.36035 | -86.23810 | 27092 ft | 471 kts | 109° |
| 2026-05-04 22:41 | 34.35036 | -86.20044 | 26487 ft | 468 kts | 109° |
| 2026-05-04 22:41 | 34.34043 | -86.16311 | 25923 ft | 464 kts | 109° |
| 2026-05-04 22:41 | 34.33065 | -86.12618 | 25397 ft | 460 kts | 108° |
| 2026-05-04 22:41 | 34.32107 | -86.08940 | 24852 ft | 456 kts | 108° |
| 2026-05-04 22:42 | 34.31164 | -86.05286 | 24319 ft | 453 kts | 108° |
| 2026-05-04 22:42 | 34.30225 | -86.01646 | 24134 ft | 456 kts | 108° |
| 2026-05-04 22:42 | 34.29278 | -85.97983 | 24037 ft | 454 kts | 108° |
| 2026-05-04 22:42 | 34.28337 | -85.94351 | 23989 ft | 453 kts | 108° |
| 2026-05-04 22:43 | 34.27392 | -85.90716 | 23944 ft | 451 kts | 108° |
| 2026-05-04 22:43 | 34.26460 | -85.87135 | 23654 ft | 443 kts | 108° |
| 2026-05-04 22:43 | 34.25539 | -85.83607 | 22979 ft | 437 kts | 108° |
| 2026-05-04 22:43 | 34.24625 | -85.80107 | 22006 ft | 436 kts | 109° |
| 2026-05-04 22:44 | 34.23707 | -85.76603 | 21252 ft | 438 kts | 109° |
| 2026-05-04 22:44 | 34.22796 | -85.73125 | 20826 ft | 431 kts | 109° |
| 2026-05-04 22:44 | 34.21896 | -85.69695 | 20409 ft | 425 kts | 109° |
| 2026-05-04 22:44 | 34.21006 | -85.66305 | 19906 ft | 421 kts | 109° |
| 2026-05-04 22:45 | 34.20122 | -85.62944 | 19406 ft | 418 kts | 109° |
| 2026-05-04 22:45 | 34.18370 | -85.56296 | 18443 ft | 412 kts | 109° |
| 2026-05-04 22:45 | 34.17504 | -85.53016 | 17950 ft | 408 kts | 110° |
| 2026-05-04 22:46 | 34.16646 | -85.49771 | 17442 ft | 404 kts | 110° |
| 2026-05-04 22:46 | 34.15801 | -85.46574 | 16811 ft | 395 kts | 110° |
| 2026-05-04 22:46 | 34.14959 | -85.43395 | 16102 ft | 398 kts | 110° |
| 2026-05-04 22:46 | 34.14118 | -85.40226 | 15674 ft | 393 kts | 109° |
| 2026-05-04 22:47 | 34.13299 | -85.37110 | 15277 ft | 387 kts | 109° |
| 2026-05-04 22:47 | 34.12509 | -85.34056 | 14827 ft | 384 kts | 109° |
| 2026-05-04 22:47 | 34.11717 | -85.30989 | 14359 ft | 382 kts | 109° |
| 2026-05-04 22:47 | 34.10923 | -85.27913 | 14040 ft | 375 kts | 109° |
| 2026-05-04 22:48 | 34.10168 | -85.24995 | 13969 ft | 361 kts | 109° |
| 2026-05-04 22:48 | 34.09434 | -85.22164 | 13956 ft | 346 kts | 109° |
| 2026-05-04 22:48 | 34.08730 | -85.19452 | 13948 ft | 332 kts | 109° |
| 2026-05-04 22:48 | 34.08049 | -85.16835 | 13953 ft | 323 kts | 109° |
| 2026-05-04 22:49 | 34.07364 | -85.14212 | 13983 ft | 338 kts | 109° |
| 2026-05-04 22:49 | 34.06647 | -85.11442 | 13987 ft | 351 kts | 109° |
| 2026-05-04 22:49 | 34.05935 | -85.08624 | 13984 ft | 350 kts | 108° |
| 2026-05-04 22:49 | 34.05229 | -85.05826 | 13978 ft | 346 kts | 110° |
| 2026-05-04 22:50 | 34.04068 | -85.03352 | 13972 ft | 337 kts | 137° |
| 2026-05-04 22:50 | 34.02245 | -85.01608 | 13996 ft | 333 kts | 147° |
| 2026-05-04 22:50 | 34.00359 | -84.99976 | 13990 ft | 333 kts | 146° |
| 2026-05-04 22:50 | 33.98511 | -84.98279 | 13986 ft | 335 kts | 144° |
| 2026-05-04 22:51 | 33.96703 | -84.96502 | 13995 ft | 336 kts | 142° |
| 2026-05-04 22:51 | 33.94917 | -84.94674 | 13995 ft | 341 kts | 142° |
| 2026-05-04 22:51 | 33.93121 | -84.92796 | 14002 ft | 351 kts | 139° |
| 2026-05-04 22:51 | 33.91554 | -84.90514 | 13989 ft | 357 kts | 123° |
| 2026-05-04 22:52 | 33.90450 | -84.87842 | 13994 ft | 357 kts | 116° |
| 2026-05-04 22:52 | 33.89428 | -84.85118 | 13989 ft | 357 kts | 116° |
| 2026-05-04 22:52 | 33.88409 | -84.82391 | 13986 ft | 357 kts | 116° |
| 2026-05-04 22:52 | 33.87383 | -84.79676 | 13987 ft | 356 kts | 116° |
| 2026-05-04 22:53 | 33.86349 | -84.76967 | 13983 ft | 356 kts | 116° |
| 2026-05-04 22:53 | 33.85311 | -84.74268 | 13980 ft | 356 kts | 116° |
| 2026-05-04 22:53 | 33.84265 | -84.71567 | 13984 ft | 356 kts | 116° |
| 2026-05-04 22:53 | 33.83217 | -84.68868 | 13979 ft | 356 kts | 116° |
| 2026-05-04 22:54 | 33.82167 | -84.66170 | 13979 ft | 356 kts | 116° |
| 2026-05-04 22:54 | 33.81116 | -84.63473 | 13993 ft | 356 kts | 116° |
| 2026-05-04 22:54 | 33.80056 | -84.60755 | 14010 ft | 364 kts | 116° |
| 2026-05-04 22:54 | 33.78974 | -84.57983 | 13995 ft | 366 kts | 116° |
| 2026-05-04 22:55 | 33.77903 | -84.55238 | 13788 ft | 360 kts | 116° |
| 2026-05-04 22:55 | 33.76852 | -84.52546 | 13536 ft | 352 kts | 116° |
| 2026-05-04 22:55 | 33.75815 | -84.49893 | 13142 ft | 349 kts | 116° |
| 2026-05-04 22:55 | 33.74782 | -84.47255 | 12717 ft | 347 kts | 117° |
| 2026-05-04 22:56 | 33.73785 | -84.44696 | 12597 ft | 328 kts | 115° |
| 2026-05-04 22:56 | 33.73246 | -84.42113 | 12418 ft | 315 kts | 93° |
| 2026-05-04 22:56 | 33.73243 | -84.39521 | 12013 ft | 309 kts | 90° |
| 2026-05-04 22:56 | 33.73273 | -84.36940 | 11452 ft | 309 kts | 91° |
| 2026-05-04 22:57 | 33.73288 | -84.34365 | 10971 ft | 309 kts | 91° |
| 2026-05-04 22:57 | 33.73293 | -84.31833 | 10787 ft | 295 kts | 91° |
| 2026-05-04 22:57 | 33.73296 | -84.29417 | 10368 ft | 286 kts | 91° |
| 2026-05-04 22:57 | 33.73299 | -84.27039 | 9718 ft | 283 kts | 92° |
| 2026-05-04 22:58 | 33.73302 | -84.24685 | 8988 ft | 281 kts | 92° |
| 2026-05-04 22:58 | 33.73304 | -84.22345 | 8283 ft | 279 kts | 92° |
| 2026-05-04 22:58 | 33.73306 | -84.20036 | 7878 ft | 272 kts | 92° |
| 2026-05-04 22:58 | 33.73308 | -84.17767 | 7544 ft | 270 kts | 92° |
| 2026-05-04 22:59 | 33.73187 | -84.15539 | 7259 ft | 265 kts | 107° |
| 2026-05-04 22:59 | 33.72348 | -84.13651 | 6924 ft | 258 kts | 135° |
| 2026-05-04 22:59 | 33.70886 | -84.12484 | 6399 ft | 251 kts | 163° |
| 2026-05-04 22:59 | 33.69165 | -84.12071 | 5699 ft | 249 kts | 175° |
| 2026-05-04 23:00 | 33.67464 | -84.12328 | 4998 ft | 248 kts | 202° |
| 2026-05-04 23:00 | 33.66169 | -84.13552 | 4712 ft | 231 kts | 230° |
| 2026-05-04 23:00 | 33.65280 | -84.15065 | 4447 ft | 219 kts | 238° |
| 2026-05-04 23:00 | 33.64915 | -84.16818 | 4025 ft | 222 kts | 270° |
| 2026-05-04 23:01 | 33.65008 | -84.18662 | 3617 ft | 220 kts | 268° |
| 2026-05-04 23:01 | 33.64996 | -84.20494 | 3303 ft | 216 kts | 266° |
| 2026-05-04 23:01 | 33.64982 | -84.22227 | 3196 ft | 201 kts | 266° |
| 2026-05-04 23:01 | 33.64975 | -84.23855 | 3061 ft | 190 kts | 267° |
| 2026-05-04 23:02 | 33.64975 | -84.25413 | 3022 ft | 186 kts | 266° |
| 2026-05-04 23:02 | 33.64971 | -84.26971 | 3023 ft | 188 kts | 266° |
| 2026-05-04 23:02 | 33.64966 | -84.28529 | 2980 ft | 187 kts | 266° |
| 2026-05-04 23:02 | 33.64964 | -84.30111 | 2777 ft | 190 kts | 267° |
| 2026-05-04 23:03 | 33.64962 | -84.31675 | 2526 ft | 182 kts | 267° |
| 2026-05-04 23:03 | 33.64962 | -84.33144 | 2328 ft | 170 kts | 266° |
| 2026-05-04 23:03 | 33.64960 | -84.34509 | 2080 ft | 157 kts | 267° |
| 2026-05-04 23:03 | 33.64958 | -84.35793 | 1879 ft | 152 kts | 266° |
| 2026-05-04 23:04 | 33.64956 | -84.37032 | 1674 ft | 150 kts | 267° |
| 2026-05-04 23:04 | 33.64955 | -84.38281 | 1473 ft | 150 kts | 268° |
| 2026-05-04 23:04 | 33.64961 | -84.39551 | 1319 ft | 151 kts | 267° |
| 2026-05-04 23:04 | 33.64955 | -84.40814 | 1103 ft | 150 kts | 268° |
| 2026-05-04 23:05 | 33.64948 | -84.42026 | 1006 ft | 132 kts | 271° |
| 2026-05-04 23:05 | 33.64953 | -84.42861 | 1005 ft | 68 kts | 269° |
| 2026-05-04 23:05 | 33.64911 | -84.43216 | 1006 ft | 23 kts | 246° |
| 2026-05-04 23:05 | 33.64864 | -84.43334 | 1005 ft | 7 kts | 250° |
| 2026-05-04 23:06 | 33.64855 | -84.43364 | 1005 ft | 4 kts | 252° |
| 2026-05-04 23:06 | 33.64846 | -84.43409 | 1005 ft | 9 kts | 262° |
| 2026-05-04 23:06 | 33.64838 | -84.43502 | 1005 ft | 13 kts | 249° |
| 2026-05-04 23:06 | 33.64771 | -84.43565 | 1006 ft | 12 kts | 209° |
| 2026-05-04 23:07 | 33.64693 | -84.43618 | 1005 ft | 15 kts | 210° |
| 2026-05-04 23:07 | 33.64602 | -84.43680 | 1005 ft | 14 kts | 210° |
| 2026-05-04 23:07 | 33.64518 | -84.43718 | 1005 ft | 13 kts | 185° |
| 2026-05-04 23:07 | 33.64460 | -84.43672 | 1005 ft | 11 kts | 98° |
| 2026-05-04 23:08 | 33.64460 | -84.43585 | 1005 ft | 10 kts | 88° |
| 2026-05-04 23:08 | 33.64458 | -84.43501 | 1005 ft | 10 kts | 99° |
| 2026-05-04 23:08 | 33.64410 | -84.43458 | 1005 ft | 10 kts | 181° |
| 2026-05-04 23:08 | 33.64344 | -84.43459 | 1005 ft | 9 kts | 180° |
| 2026-05-04 23:09 | 33.64307 | -84.43458 | 1005 ft | 3 kts | 179° |
| 2026-05-04 23:09 | 33.64287 | -84.43458 | 1005 ft | 3 kts | 180° |
| 2026-05-04 23:09 | 33.64264 | -84.43458 | 1005 ft | 5 kts | 180° |
| 2026-05-04 23:09 | 33.64219 | -84.43458 | 1005 ft | 7 kts | 180° |
| 2026-05-04 23:10 | 33.64181 | -84.43471 | 1005 ft | 4 kts | 227° |
| 2026-05-04 23:10 | 33.64176 | -84.43497 | 1005 ft | 2 kts | 266° |
| 2026-05-04 23:10 | 33.64176 | -84.43514 | 1005 ft | 2 kts | 269° |
| 2026-05-04 23:10 | 33.64176 | -84.43517 | 1005 ft | 0 kts | 269° |